sensor_id;sensor_type;location;lat;lon;timestamp;temperature;humidity
77829;DHT22;67019;51.034;3.728;2023-11-21T00:00:15;8.20;99.90
77829;DHT22;67019;51.034;3.728;2023-11-21T00:02:44;8.30;99.90
77829;DHT22;67019;51.034;3.728;2023-11-21T00:05:13;8.20;99.90
77829;DHT22;67019;51.034;3.728;2023-11-21T00:07:44;8.20;99.90
77829;DHT22;67019;51.034;3.728;2023-11-21T00:10:12;8.10;99.90
77829;DHT22;67019;51.034;3.728;2023-11-21T00:12:42;8.10;99.90
77829;DHT22;67019;51.034;3.728;2023-11-21T00:15:10;8.10;99.90
77829;DHT22;67019;51.034;3.728;2023-11-21T00:17:38;8.10;99.90
77829;DHT22;67019;51.034;3.728;2023-11-21T00:20:07;8.20;99.90
77829;DHT22;67019;51.034;3.728;2023-11-21T00:22:35;8.10;99.90
77829;DHT22;67019;51.034;3.728;2023-11-21T00:25:03;8.20;99.90
77829;DHT22;67019;51.034;3.728;2023-11-21T00:27:31;8.20;99.90
77829;DHT22;67019;51.034;3.728;2023-11-21T00:29:59;8.30;99.90
77829;DHT22;67019;51.034;3.728;2023-11-21T00:32:28;8.20;99.90
77829;DHT22;67019;51.034;3.728;2023-11-21T00:34:56;8.20;99.90
77829;DHT22;67019;51.034;3.728;2023-11-21T00:37:23;8.20;99.90
77829;DHT22;67019;51.034;3.728;2023-11-21T00:39:51;8.10;99.90
77829;DHT22;67019;51.034;3.728;2023-11-21T00:42:19;8.10;99.90
77829;DHT22;67019;51.034;3.728;2023-11-21T00:44:49;8.10;99.90
77829;DHT22;67019;51.034;3.728;2023-11-21T00:47:18;8.20;99.90
77829;DHT22;67019;51.034;3.728;2023-11-21T00:49:46;8.10;99.90
77829;DHT22;67019;51.034;3.728;2023-11-21T00:52:15;8.10;99.90
77829;DHT22;67019;51.034;3.728;2023-11-21T00:54:45;8.10;99.90
77829;DHT22;67019;51.034;3.728;2023-11-21T00:57:12;8.10;99.90
77829;DHT22;67019;51.034;3.728;2023-11-21T00:59:40;8.10;99.90
77829;DHT22;67019;51.034;3.728;2023-11-21T01:02:08;8.10;99.90
77829;DHT22;67019;51.034;3.728;2023-11-21T01:04:37;8.10;99.90
77829;DHT22;67019;51.034;3.728;2023-11-21T01:07:05;8.30;99.90
77829;DHT22;67019;51.034;3.728;2023-11-21T01:09:32;8.30;99.90
77829;DHT22;67019;51.034;3.728;2023-11-21T01:12:02;8.30;99.90
77829;DHT22;67019;51.034;3.728;2023-11-21T01:14:29;8.40;99.90
77829;DHT22;67019;51.034;3.728;2023-11-21T01:16:57;8.40;99.90
77829;DHT22;67019;51.034;3.728;2023-11-21T01:19:26;8.30;99.90
77829;DHT22;67019;51.034;3.728;2023-11-21T01:21:55;8.30;99.90
77829;DHT22;67019;51.034;3.728;2023-11-21T01:24:24;8.40;99.90
77829;DHT22;67019;51.034;3.728;2023-11-21T01:26:52;8.50;99.90
77829;DHT22;67019;51.034;3.728;2023-11-21T01:29:20;8.50;99.90
77829;DHT22;67019;51.034;3.728;2023-11-21T01:31:47;8.60;99.90
77829;DHT22;67019;51.034;3.728;2023-11-21T01:34:15;8.50;99.90
77829;DHT22;67019;51.034;3.728;2023-11-21T01:36:43;8.40;99.90
77829;DHT22;67019;51.034;3.728;2023-11-21T01:39:13;8.30;99.90
77829;DHT22;67019;51.034;3.728;2023-11-21T01:41:42;8.50;99.90
77829;DHT22;67019;51.034;3.728;2023-11-21T01:44:10;8.40;99.90
77829;DHT22;67019;51.034;3.728;2023-11-21T01:46:39;8.20;99.90
77829;DHT22;67019;51.034;3.728;2023-11-21T01:49:09;8.30;99.90
77829;DHT22;67019;51.034;3.728;2023-11-21T01:51:39;8.30;99.90
77829;DHT22;67019;51.034;3.728;2023-11-21T01:54:07;8.30;99.90
77829;DHT22;67019;51.034;3.728;2023-11-21T01:56:35;8.30;99.90
77829;DHT22;67019;51.034;3.728;2023-11-21T01:59:06;8.30;99.90
77829;DHT22;67019;51.034;3.728;2023-11-21T02:01:37;8.10;99.90
77829;DHT22;67019;51.034;3.728;2023-11-21T02:04:06;8.30;99.90
77829;DHT22;67019;51.034;3.728;2023-11-21T02:06:35;8.30;99.90
77829;DHT22;67019;51.034;3.728;2023-11-21T02:09:06;8.30;99.90
77829;DHT22;67019;51.034;3.728;2023-11-21T02:11:33;8.30;99.90
77829;DHT22;67019;51.034;3.728;2023-11-21T02:14:01;8.30;99.90
77829;DHT22;67019;51.034;3.728;2023-11-21T02:16:29;8.30;99.90
77829;DHT22;67019;51.034;3.728;2023-11-21T02:18:58;8.40;99.90
77829;DHT22;67019;51.034;3.728;2023-11-21T02:21:34;8.30;99.90
77829;DHT22;67019;51.034;3.728;2023-11-21T02:23:58;8.40;99.90
77829;DHT22;67019;51.034;3.728;2023-11-21T02:26:28;8.50;99.90
77829;DHT22;67019;51.034;3.728;2023-11-21T02:28:55;8.50;99.90
77829;DHT22;67019;51.034;3.728;2023-11-21T02:31:26;8.60;99.90
77829;DHT22;67019;51.034;3.728;2023-11-21T02:33:55;8.50;99.90
77829;DHT22;67019;51.034;3.728;2023-11-21T02:36:26;8.80;99.90
77829;DHT22;67019;51.034;3.728;2023-11-21T02:38:53;8.90;99.90
77829;DHT22;67019;51.034;3.728;2023-11-21T02:41:20;9.00;99.90
77829;DHT22;67019;51.034;3.728;2023-11-21T02:43:50;9.20;99.90
77829;DHT22;67019;51.034;3.728;2023-11-21T02:46:19;8.80;99.90
77829;DHT22;67019;51.034;3.728;2023-11-21T02:48:52;8.70;99.90
77829;DHT22;67019;51.034;3.728;2023-11-21T02:51:22;8.40;99.90
77829;DHT22;67019;51.034;3.728;2023-11-21T02:54:00;8.60;99.90
77829;DHT22;67019;51.034;3.728;2023-11-21T02:56:29;8.60;99.90
77829;DHT22;67019;51.034;3.728;2023-11-21T02:58:57;8.50;99.90
77829;DHT22;67019;51.034;3.728;2023-11-21T03:01:26;8.40;99.90
77829;DHT22;67019;51.034;3.728;2023-11-21T03:03:56;8.40;99.90
77829;DHT22;67019;51.034;3.728;2023-11-21T03:06:25;8.40;99.90
77829;DHT22;67019;51.034;3.728;2023-11-21T03:08:54;8.30;99.90
77829;DHT22;67019;51.034;3.728;2023-11-21T03:11:22;8.40;99.90
77829;DHT22;67019;51.034;3.728;2023-11-21T03:13:51;8.40;99.90
77829;DHT22;67019;51.034;3.728;2023-11-21T03:16:19;8.40;99.90
77829;DHT22;67019;51.034;3.728;2023-11-21T03:18:47;8.50;99.90
77829;DHT22;67019;51.034;3.728;2023-11-21T03:21:14;8.50;99.90
77829;DHT22;67019;51.034;3.728;2023-11-21T03:23:42;8.50;99.90
77829;DHT22;67019;51.034;3.728;2023-11-21T03:26:12;8.50;99.90
77829;DHT22;67019;51.034;3.728;2023-11-21T03:28:40;8.50;99.90
77829;DHT22;67019;51.034;3.728;2023-11-21T03:31:09;8.40;99.90
77829;DHT22;67019;51.034;3.728;2023-11-21T03:33:37;8.40;99.90
77829;DHT22;67019;51.034;3.728;2023-11-21T03:36:05;8.40;99.90
77829;DHT22;67019;51.034;3.728;2023-11-21T03:38:34;8.50;99.90
77829;DHT22;67019;51.034;3.728;2023-11-21T03:41:02;8.50;99.90
77829;DHT22;67019;51.034;3.728;2023-11-21T03:43:29;8.50;99.90
77829;DHT22;67019;51.034;3.728;2023-11-21T03:45:57;8.50;99.90
77829;DHT22;67019;51.034;3.728;2023-11-21T03:48:25;8.60;99.90
77829;DHT22;67019;51.034;3.728;2023-11-21T03:50:52;8.60;99.90
77829;DHT22;67019;51.034;3.728;2023-11-21T03:53:20;8.60;99.90
77829;DHT22;67019;51.034;3.728;2023-11-21T03:55:48;8.40;99.90
77829;DHT22;67019;51.034;3.728;2023-11-21T03:58:16;8.50;99.90
77829;DHT22;67019;51.034;3.728;2023-11-21T04:00:47;8.50;99.90
77829;DHT22;67019;51.034;3.728;2023-11-21T04:03:15;8.50;99.90
77829;DHT22;67019;51.034;3.728;2023-11-21T04:05:43;8.50;99.90
77829;DHT22;67019;51.034;3.728;2023-11-21T04:08:12;8.60;99.90
77829;DHT22;67019;51.034;3.728;2023-11-21T04:10:40;8.60;99.90
77829;DHT22;67019;51.034;3.728;2023-11-21T04:13:08;8.90;99.90
77829;DHT22;67019;51.034;3.728;2023-11-21T04:15:37;8.80;99.90
77829;DHT22;67019;51.034;3.728;2023-11-21T04:18:04;8.80;99.90
77829;DHT22;67019;51.034;3.728;2023-11-21T04:20:34;8.80;99.90
77829;DHT22;67019;51.034;3.728;2023-11-21T04:23:01;8.60;99.90
77829;DHT22;67019;51.034;3.728;2023-11-21T04:25:31;8.70;99.90
77829;DHT22;67019;51.034;3.728;2023-11-21T04:27:58;8.70;99.90
77829;DHT22;67019;51.034;3.728;2023-11-21T04:30:26;8.80;99.90
77829;DHT22;67019;51.034;3.728;2023-11-21T04:32:54;8.80;99.90
77829;DHT22;67019;51.034;3.728;2023-11-21T04:35:21;8.80;99.90
77829;DHT22;67019;51.034;3.728;2023-11-21T04:37:49;8.90;99.90
77829;DHT22;67019;51.034;3.728;2023-11-21T04:40:17;8.90;99.90
77829;DHT22;67019;51.034;3.728;2023-11-21T04:42:48;9.00;99.90
77829;DHT22;67019;51.034;3.728;2023-11-21T04:45:15;9.00;99.90
77829;DHT22;67019;51.034;3.728;2023-11-21T04:47:47;9.00;99.90
77829;DHT22;67019;51.034;3.728;2023-11-21T04:50:12;9.00;99.90
77829;DHT22;67019;51.034;3.728;2023-11-21T04:52:40;8.90;99.90
77829;DHT22;67019;51.034;3.728;2023-11-21T04:55:08;9.10;99.90
77829;DHT22;67019;51.034;3.728;2023-11-21T04:57:37;9.00;99.90
77829;DHT22;67019;51.034;3.728;2023-11-21T05:00:10;9.00;99.90
77829;DHT22;67019;51.034;3.728;2023-11-21T05:02:36;8.80;99.90
77829;DHT22;67019;51.034;3.728;2023-11-21T05:05:05;9.00;99.90
77829;DHT22;67019;51.034;3.728;2023-11-21T05:07:33;9.00;99.90
77829;DHT22;67019;51.034;3.728;2023-11-21T05:10:04;8.90;99.90
77829;DHT22;67019;51.034;3.728;2023-11-21T05:12:34;8.90;99.90
77829;DHT22;67019;51.034;3.728;2023-11-21T05:15:08;8.90;99.90
77829;DHT22;67019;51.034;3.728;2023-11-21T05:17:38;8.90;99.90
77829;DHT22;67019;51.034;3.728;2023-11-21T05:20:08;8.80;99.90
77829;DHT22;67019;51.034;3.728;2023-11-21T05:22:36;8.80;99.90
77829;DHT22;67019;51.034;3.728;2023-11-21T05:25:04;8.90;99.90
77829;DHT22;67019;51.034;3.728;2023-11-21T05:27:34;9.00;99.90
77829;DHT22;67019;51.034;3.728;2023-11-21T05:30:05;8.90;99.90
77829;DHT22;67019;51.034;3.728;2023-11-21T05:32:33;8.90;99.90
77829;DHT22;67019;51.034;3.728;2023-11-21T05:35:01;9.00;99.90
77829;DHT22;67019;51.034;3.728;2023-11-21T05:37:29;9.10;99.90
77829;DHT22;67019;51.034;3.728;2023-11-21T05:39:57;9.10;99.90
77829;DHT22;67019;51.034;3.728;2023-11-21T05:42:26;9.10;99.90
77829;DHT22;67019;51.034;3.728;2023-11-21T05:44:54;9.20;99.90
77829;DHT22;67019;51.034;3.728;2023-11-21T05:47:26;9.20;99.90
77829;DHT22;67019;51.034;3.728;2023-11-21T05:49:50;9.00;99.90
77829;DHT22;67019;51.034;3.728;2023-11-21T05:52:18;9.00;99.90
77829;DHT22;67019;51.034;3.728;2023-11-21T05:54:47;9.00;99.90
77829;DHT22;67019;51.034;3.728;2023-11-21T05:57:14;9.00;99.90
77829;DHT22;67019;51.034;3.728;2023-11-21T05:59:42;9.00;99.90
77829;DHT22;67019;51.034;3.728;2023-11-21T06:02:10;9.10;99.90
77829;DHT22;67019;51.034;3.728;2023-11-21T06:04:37;9.10;99.90
77829;DHT22;67019;51.034;3.728;2023-11-21T06:07:05;9.20;99.90
77829;DHT22;67019;51.034;3.728;2023-11-21T06:09:33;9.10;99.90
77829;DHT22;67019;51.034;3.728;2023-11-21T06:12:01;9.40;99.90
77829;DHT22;67019;51.034;3.728;2023-11-21T06:14:29;9.40;99.90
77829;DHT22;67019;51.034;3.728;2023-11-21T06:16:59;9.30;99.90
77829;DHT22;67019;51.034;3.728;2023-11-21T06:19:27;9.30;99.90
77829;DHT22;67019;51.034;3.728;2023-11-21T06:21:54;9.40;99.90
77829;DHT22;67019;51.034;3.728;2023-11-21T06:24:23;9.20;99.90
77829;DHT22;67019;51.034;3.728;2023-11-21T06:26:53;9.20;99.90
77829;DHT22;67019;51.034;3.728;2023-11-21T06:29:22;9.30;99.90
77829;DHT22;67019;51.034;3.728;2023-11-21T06:31:50;9.20;99.90
77829;DHT22;67019;51.034;3.728;2023-11-21T06:34:17;9.20;99.90
77829;DHT22;67019;51.034;3.728;2023-11-21T06:36:46;9.30;99.90
77829;DHT22;67019;51.034;3.728;2023-11-21T06:39:14;9.40;99.90
77829;DHT22;67019;51.034;3.728;2023-11-21T06:41:43;9.30;99.90
77829;DHT22;67019;51.034;3.728;2023-11-21T06:44:11;9.30;99.90
77829;DHT22;67019;51.034;3.728;2023-11-21T06:46:40;9.20;99.90
77829;DHT22;67019;51.034;3.728;2023-11-21T06:49:09;9.20;99.90
77829;DHT22;67019;51.034;3.728;2023-11-21T06:51:37;9.20;99.90
77829;DHT22;67019;51.034;3.728;2023-11-21T06:54:11;9.40;99.90
77829;DHT22;67019;51.034;3.728;2023-11-21T06:56:38;9.50;99.90
77829;DHT22;67019;51.034;3.728;2023-11-21T06:59:06;9.30;99.90
77829;DHT22;67019;51.034;3.728;2023-11-21T07:01:35;9.40;99.90
77829;DHT22;67019;51.034;3.728;2023-11-21T07:04:05;9.40;99.90
77829;DHT22;67019;51.034;3.728;2023-11-21T07:06:33;9.30;99.90
77829;DHT22;67019;51.034;3.728;2023-11-21T07:09:03;9.30;99.90
77829;DHT22;67019;51.034;3.728;2023-11-21T07:11:30;9.30;99.90
77829;DHT22;67019;51.034;3.728;2023-11-21T07:13:59;9.30;99.90
77829;DHT22;67019;51.034;3.728;2023-11-21T07:16:28;9.30;99.90
77829;DHT22;67019;51.034;3.728;2023-11-21T07:18:58;9.30;99.90
77829;DHT22;67019;51.034;3.728;2023-11-21T07:21:26;9.30;99.90
77829;DHT22;67019;51.034;3.728;2023-11-21T07:23:55;9.30;99.90
77829;DHT22;67019;51.034;3.728;2023-11-21T07:26:24;9.40;99.90
77829;DHT22;67019;51.034;3.728;2023-11-21T07:28:52;9.40;99.90
77829;DHT22;67019;51.034;3.728;2023-11-21T07:31:22;9.30;99.90
77829;DHT22;67019;51.034;3.728;2023-11-21T07:33:50;9.30;99.90
77829;DHT22;67019;51.034;3.728;2023-11-21T07:36:19;9.40;99.90
77829;DHT22;67019;51.034;3.728;2023-11-21T07:38:50;9.60;99.90
77829;DHT22;67019;51.034;3.728;2023-11-21T07:41:18;9.70;99.90
77829;DHT22;67019;51.034;3.728;2023-11-21T07:43:47;9.90;99.90
77829;DHT22;67019;51.034;3.728;2023-11-21T07:46:15;10.00;99.90
77829;DHT22;67019;51.034;3.728;2023-11-21T07:48:43;10.10;99.90
77829;DHT22;67019;51.034;3.728;2023-11-21T07:51:14;9.90;99.90
77829;DHT22;67019;51.034;3.728;2023-11-21T07:53:45;9.90;99.90
77829;DHT22;67019;51.034;3.728;2023-11-21T07:56:13;9.70;99.90
77829;DHT22;67019;51.034;3.728;2023-11-21T07:58:40;9.70;99.90
77829;DHT22;67019;51.034;3.728;2023-11-21T08:01:12;9.60;99.90
77829;DHT22;67019;51.034;3.728;2023-11-21T08:03:40;9.80;99.90
77829;DHT22;67019;51.034;3.728;2023-11-21T08:06:08;9.90;99.90
77829;DHT22;67019;51.034;3.728;2023-11-21T08:08:37;9.90;99.90
77829;DHT22;67019;51.034;3.728;2023-11-21T08:11:05;10.10;99.90
77829;DHT22;67019;51.034;3.728;2023-11-21T08:13:34;10.20;99.90
77829;DHT22;67019;51.034;3.728;2023-11-21T08:16:02;10.20;99.90
77829;DHT22;67019;51.034;3.728;2023-11-21T08:18:31;10.30;99.90
77829;DHT22;67019;51.034;3.728;2023-11-21T08:20:59;10.40;99.90
77829;DHT22;67019;51.034;3.728;2023-11-21T08:23:30;10.50;99.90
77829;DHT22;67019;51.034;3.728;2023-11-21T08:25:59;10.40;99.90
77829;DHT22;67019;51.034;3.728;2023-11-21T08:28:28;10.30;99.90
77829;DHT22;67019;51.034;3.728;2023-11-21T08:30:55;10.20;99.90
77829;DHT22;67019;51.034;3.728;2023-11-21T08:33:23;10.20;99.90
77829;DHT22;67019;51.034;3.728;2023-11-21T08:35:51;10.20;99.90
77829;DHT22;67019;51.034;3.728;2023-11-21T08:38:18;10.20;99.90
77829;DHT22;67019;51.034;3.728;2023-11-21T08:40:46;10.30;99.90
77829;DHT22;67019;51.034;3.728;2023-11-21T08:43:14;10.30;99.90
77829;DHT22;67019;51.034;3.728;2023-11-21T08:45:42;10.30;99.90
77829;DHT22;67019;51.034;3.728;2023-11-21T08:48:10;10.30;99.90
77829;DHT22;67019;51.034;3.728;2023-11-21T08:50:38;10.40;99.90
77829;DHT22;67019;51.034;3.728;2023-11-21T08:53:05;10.50;99.90
77829;DHT22;67019;51.034;3.728;2023-11-21T08:55:35;10.60;99.90
77829;DHT22;67019;51.034;3.728;2023-11-21T08:58:03;10.50;99.90
77829;DHT22;67019;51.034;3.728;2023-11-21T09:00:33;10.70;99.90
77829;DHT22;67019;51.034;3.728;2023-11-21T09:03:02;10.70;99.90
77829;DHT22;67019;51.034;3.728;2023-11-21T09:05:31;10.70;99.90
77829;DHT22;67019;51.034;3.728;2023-11-21T09:08:02;10.60;99.90
77829;DHT22;67019;51.034;3.728;2023-11-21T09:10:31;10.60;99.90
77829;DHT22;67019;51.034;3.728;2023-11-21T09:12:59;10.70;99.90
77829;DHT22;67019;51.034;3.728;2023-11-21T09:15:26;10.90;99.90
77829;DHT22;67019;51.034;3.728;2023-11-21T09:17:55;10.80;99.90
77829;DHT22;67019;51.034;3.728;2023-11-21T09:20:26;10.80;99.90
77829;DHT22;67019;51.034;3.728;2023-11-21T09:23:11;10.90;99.90
77829;DHT22;67019;51.034;3.728;2023-11-21T09:25:41;10.90;99.90
77829;DHT22;67019;51.034;3.728;2023-11-21T09:28:11;11.10;99.90
77829;DHT22;67019;51.034;3.728;2023-11-21T09:30:39;11.20;99.90
77829;DHT22;67019;51.034;3.728;2023-11-21T09:33:10;11.30;99.90
77829;DHT22;67019;51.034;3.728;2023-11-21T09:35:40;11.40;99.90
77829;DHT22;67019;51.034;3.728;2023-11-21T09:38:09;11.70;99.90
77829;DHT22;67019;51.034;3.728;2023-11-21T09:40:41;11.90;99.90
77829;DHT22;67019;51.034;3.728;2023-11-21T09:43:15;11.90;99.90
77829;DHT22;67019;51.034;3.728;2023-11-21T09:45:42;12.10;99.90
77829;DHT22;67019;51.034;3.728;2023-11-21T09:48:14;12.30;99.90
77829;DHT22;67019;51.034;3.728;2023-11-21T09:50:47;12.40;99.90
77829;DHT22;67019;51.034;3.728;2023-11-21T09:53:19;12.50;99.90
77829;DHT22;67019;51.034;3.728;2023-11-21T09:55:54;12.70;99.90
77829;DHT22;67019;51.034;3.728;2023-11-21T09:58:27;12.80;99.90
77829;DHT22;67019;51.034;3.728;2023-11-21T10:01:00;12.80;99.90
77829;DHT22;67019;51.034;3.728;2023-11-21T10:03:29;12.70;99.90
77829;DHT22;67019;51.034;3.728;2023-11-21T10:05:58;12.50;99.90
77829;DHT22;67019;51.034;3.728;2023-11-21T10:08:27;12.60;99.90
77829;DHT22;67019;51.034;3.728;2023-11-21T10:10:56;12.60;99.90
77829;DHT22;67019;51.034;3.728;2023-11-21T10:13:26;12.70;99.90
77829;DHT22;67019;51.034;3.728;2023-11-21T10:15:57;12.80;99.90
77829;DHT22;67019;51.034;3.728;2023-11-21T10:18:26;12.80;99.90
77829;DHT22;67019;51.034;3.728;2023-11-21T10:20:56;12.80;99.90
77829;DHT22;67019;51.034;3.728;2023-11-21T10:23:25;12.70;99.90
77829;DHT22;67019;51.034;3.728;2023-11-21T10:25:53;12.50;99.90
77829;DHT22;67019;51.034;3.728;2023-11-21T10:28:22;12.40;99.90
77829;DHT22;67019;51.034;3.728;2023-11-21T10:30:50;12.60;99.90
77829;DHT22;67019;51.034;3.728;2023-11-21T10:33:26;12.60;99.90
77829;DHT22;67019;51.034;3.728;2023-11-21T10:35:49;12.50;99.90
77829;DHT22;67019;51.034;3.728;2023-11-21T10:38:17;12.50;99.90
77829;DHT22;67019;51.034;3.728;2023-11-21T10:40:47;12.60;99.90
77829;DHT22;67019;51.034;3.728;2023-11-21T10:43:16;12.70;99.90
77829;DHT22;67019;51.034;3.728;2023-11-21T10:45:45;12.70;99.90
77829;DHT22;67019;51.034;3.728;2023-11-21T10:48:16;12.80;99.90
77829;DHT22;67019;51.034;3.728;2023-11-21T10:50:46;12.80;99.90
77829;DHT22;67019;51.034;3.728;2023-11-21T10:53:14;12.90;99.90
77829;DHT22;67019;51.034;3.728;2023-11-21T10:55:42;13.00;99.90
77829;DHT22;67019;51.034;3.728;2023-11-21T10:58:14;12.90;99.90
77829;DHT22;67019;51.034;3.728;2023-11-21T11:00:45;13.00;99.90
77829;DHT22;67019;51.034;3.728;2023-11-21T11:03:14;13.00;99.90
77829;DHT22;67019;51.034;3.728;2023-11-21T11:05:44;12.90;99.90
77829;DHT22;67019;51.034;3.728;2023-11-21T11:08:23;12.80;99.90
77829;DHT22;67019;51.034;3.728;2023-11-21T11:10:53;12.70;99.90
77829;DHT22;67019;51.034;3.728;2023-11-21T11:13:21;12.60;99.90
77829;DHT22;67019;51.034;3.728;2023-11-21T11:15:50;12.30;99.90
77829;DHT22;67019;51.034;3.728;2023-11-21T11:18:18;12.40;99.90
77829;DHT22;67019;51.034;3.728;2023-11-21T11:20:48;12.30;99.90
77829;DHT22;67019;51.034;3.728;2023-11-21T11:23:40;12.40;99.90
77829;DHT22;67019;51.034;3.728;2023-11-21T11:29:10;12.30;99.90
77829;DHT22;67019;51.034;3.728;2023-11-21T11:34:29;12.40;99.90
77829;DHT22;67019;51.034;3.728;2023-11-21T11:37:02;12.40;99.90
77829;DHT22;67019;51.034;3.728;2023-11-21T11:39:50;12.20;99.90
77829;DHT22;67019;51.034;3.728;2023-11-21T11:42:17;12.20;99.90
77829;DHT22;67019;51.034;3.728;2023-11-21T11:44:47;12.10;99.90
77829;DHT22;67019;51.034;3.728;2023-11-21T11:47:26;12.10;99.90
77829;DHT22;67019;51.034;3.728;2023-11-21T11:52:43;12.20;99.90
77829;DHT22;67019;51.034;3.728;2023-11-21T11:55:17;12.30;99.90
77829;DHT22;67019;51.034;3.728;2023-11-21T11:57:43;12.40;99.90
77829;DHT22;67019;51.034;3.728;2023-11-21T12:00:13;12.40;99.90
77829;DHT22;67019;51.034;3.728;2023-11-21T12:02:48;12.40;99.90
77829;DHT22;67019;51.034;3.728;2023-11-21T12:05:19;12.50;99.90
77829;DHT22;67019;51.034;3.728;2023-11-21T12:08:06;12.50;99.90
77829;DHT22;67019;51.034;3.728;2023-11-21T12:10:36;12.70;99.90
77829;DHT22;67019;51.034;3.728;2023-11-21T12:13:07;12.90;99.90
77829;DHT22;67019;51.034;3.728;2023-11-21T12:15:35;12.70;99.90
77829;DHT22;67019;51.034;3.728;2023-11-21T12:18:04;12.70;99.90
77829;DHT22;67019;51.034;3.728;2023-11-21T12:20:32;12.60;99.90
77829;DHT22;67019;51.034;3.728;2023-11-21T12:23:01;12.60;99.90
77829;DHT22;67019;51.034;3.728;2023-11-21T12:25:30;12.50;99.90
77829;DHT22;67019;51.034;3.728;2023-11-21T12:28:01;12.40;99.90
77829;DHT22;67019;51.034;3.728;2023-11-21T12:30:31;12.30;99.90
77829;DHT22;67019;51.034;3.728;2023-11-21T12:33:00;12.30;99.90
77829;DHT22;67019;51.034;3.728;2023-11-21T12:35:36;12.30;99.90
77829;DHT22;67019;51.034;3.728;2023-11-21T12:38:07;12.20;99.90
77829;DHT22;67019;51.034;3.728;2023-11-21T12:40:36;12.20;99.90
77829;DHT22;67019;51.034;3.728;2023-11-21T12:43:04;12.10;99.90
77829;DHT22;67019;51.034;3.728;2023-11-21T12:45:32;12.00;99.90
77829;DHT22;67019;51.034;3.728;2023-11-21T12:48:02;12.00;99.90
77829;DHT22;67019;51.034;3.728;2023-11-21T12:50:32;12.00;99.90
77829;DHT22;67019;51.034;3.728;2023-11-21T12:53:19;11.90;99.90
77829;DHT22;67019;51.034;3.728;2023-11-21T12:55:46;11.80;99.90
77829;DHT22;67019;51.034;3.728;2023-11-21T12:58:16;11.90;99.90
77829;DHT22;67019;51.034;3.728;2023-11-21T13:00:47;11.90;99.90
77829;DHT22;67019;51.034;3.728;2023-11-21T13:03:18;11.80;99.90
77829;DHT22;67019;51.034;3.728;2023-11-21T13:05:48;11.90;99.90
77829;DHT22;67019;51.034;3.728;2023-11-21T13:08:17;11.80;99.90
77829;DHT22;67019;51.034;3.728;2023-11-21T13:10:53;11.70;99.90
77829;DHT22;67019;51.034;3.728;2023-11-21T13:13:22;11.70;99.90
77829;DHT22;67019;51.034;3.728;2023-11-21T13:15:52;11.80;99.90
77829;DHT22;67019;51.034;3.728;2023-11-21T13:18:24;11.80;99.90
77829;DHT22;67019;51.034;3.728;2023-11-21T13:20:54;11.80;99.90
77829;DHT22;67019;51.034;3.728;2023-11-21T13:23:23;11.90;99.90
77829;DHT22;67019;51.034;3.728;2023-11-21T13:25:53;12.00;99.90
77829;DHT22;67019;51.034;3.728;2023-11-21T13:28:21;12.00;99.90
77829;DHT22;67019;51.034;3.728;2023-11-21T13:30:51;12.10;99.90
77829;DHT22;67019;51.034;3.728;2023-11-21T13:33:22;12.10;99.90
77829;DHT22;67019;51.034;3.728;2023-11-21T13:35:51;12.20;99.90
77829;DHT22;67019;51.034;3.728;2023-11-21T13:38:20;12.20;99.90
77829;DHT22;67019;51.034;3.728;2023-11-21T13:40:52;12.30;99.90
77829;DHT22;67019;51.034;3.728;2023-11-21T13:43:22;12.20;99.90
77829;DHT22;67019;51.034;3.728;2023-11-21T13:45:53;12.40;99.90
77829;DHT22;67019;51.034;3.728;2023-11-21T13:48:31;12.20;99.90
77829;DHT22;67019;51.034;3.728;2023-11-21T13:51:03;12.10;99.90
77829;DHT22;67019;51.034;3.728;2023-11-21T13:53:50;12.10;99.90
77829;DHT22;67019;51.034;3.728;2023-11-21T13:56:20;12.10;99.90
77829;DHT22;67019;51.034;3.728;2023-11-21T13:58:52;12.10;99.90
77829;DHT22;67019;51.034;3.728;2023-11-21T14:01:25;12.20;99.90
77829;DHT22;67019;51.034;3.728;2023-11-21T14:04:02;12.20;99.90
77829;DHT22;67019;51.034;3.728;2023-11-21T14:06:30;12.10;99.90
77829;DHT22;67019;51.034;3.728;2023-11-21T14:09:00;12.10;99.90
77829;DHT22;67019;51.034;3.728;2023-11-21T14:11:29;12.10;99.90
77829;DHT22;67019;51.034;3.728;2023-11-21T14:13:57;12.30;99.90
77829;DHT22;67019;51.034;3.728;2023-11-21T14:16:25;12.20;99.90
77829;DHT22;67019;51.034;3.728;2023-11-21T14:18:53;11.30;99.90
77829;DHT22;67019;51.034;3.728;2023-11-21T14:21:25;11.70;99.90
77829;DHT22;67019;51.034;3.728;2023-11-21T14:23:53;11.90;99.90
77829;DHT22;67019;51.034;3.728;2023-11-21T14:26:24;11.90;99.90
77829;DHT22;67019;51.034;3.728;2023-11-21T14:28:52;12.00;99.90
77829;DHT22;67019;51.034;3.728;2023-11-21T14:31:20;12.00;99.90
77829;DHT22;67019;51.034;3.728;2023-11-21T14:33:50;12.40;99.90
77829;DHT22;67019;51.034;3.728;2023-11-21T14:36:19;11.90;99.90
77829;DHT22;67019;51.034;3.728;2023-11-21T14:38:46;12.00;99.90
77829;DHT22;67019;51.034;3.728;2023-11-21T14:41:15;11.90;99.90
77829;DHT22;67019;51.034;3.728;2023-11-21T14:43:43;11.70;99.90
77829;DHT22;67019;51.034;3.728;2023-11-21T14:46:12;11.70;99.90
77829;DHT22;67019;51.034;3.728;2023-11-21T14:48:41;11.70;99.90
77829;DHT22;67019;51.034;3.728;2023-11-21T14:51:12;11.80;99.90
77829;DHT22;67019;51.034;3.728;2023-11-21T14:53:41;11.60;99.90
77829;DHT22;67019;51.034;3.728;2023-11-21T14:56:22;11.80;99.90
77829;DHT22;67019;51.034;3.728;2023-11-21T14:58:54;11.90;99.90
77829;DHT22;67019;51.034;3.728;2023-11-21T15:01:22;12.00;99.90
77829;DHT22;67019;51.034;3.728;2023-11-21T15:03:52;11.90;99.90
77829;DHT22;67019;51.034;3.728;2023-11-21T15:06:21;11.80;99.90
77829;DHT22;67019;51.034;3.728;2023-11-21T15:08:56;11.80;99.90
77829;DHT22;67019;51.034;3.728;2023-11-21T15:11:38;11.90;99.90
77829;DHT22;67019;51.034;3.728;2023-11-21T15:14:05;11.90;99.90
77829;DHT22;67019;51.034;3.728;2023-11-21T15:16:35;11.50;99.90
77829;DHT22;67019;51.034;3.728;2023-11-21T15:19:09;11.30;99.90
77829;DHT22;67019;51.034;3.728;2023-11-21T15:21:38;11.30;99.90
77829;DHT22;67019;51.034;3.728;2023-11-21T15:24:06;11.20;99.90
77829;DHT22;67019;51.034;3.728;2023-11-21T15:26:45;11.20;99.90
77829;DHT22;67019;51.034;3.728;2023-11-21T15:29:13;11.30;99.90
77829;DHT22;67019;51.034;3.728;2023-11-21T15:31:41;11.20;99.90
77829;DHT22;67019;51.034;3.728;2023-11-21T15:34:11;11.20;99.90
77829;DHT22;67019;51.034;3.728;2023-11-21T15:36:39;11.40;99.90
77829;DHT22;67019;51.034;3.728;2023-11-21T15:39:07;11.40;99.90
77829;DHT22;67019;51.034;3.728;2023-11-21T15:41:38;11.40;99.90
77829;DHT22;67019;51.034;3.728;2023-11-21T15:44:06;11.40;99.90
77829;DHT22;67019;51.034;3.728;2023-11-21T15:46:36;11.50;99.90
77829;DHT22;67019;51.034;3.728;2023-11-21T15:49:08;11.70;99.90
77829;DHT22;67019;51.034;3.728;2023-11-21T15:51:40;11.30;99.90
77829;DHT22;67019;51.034;3.728;2023-11-21T15:54:07;11.10;99.90
77829;DHT22;67019;51.034;3.728;2023-11-21T15:56:38;11.10;99.90
77829;DHT22;67019;51.034;3.728;2023-11-21T15:59:06;11.20;99.90